sensor_id;sensor_type;location;lat;lon;timestamp;temperature;humidity
75824;DHT22;64457;51.976;9.834;2023-01-25T00:00:45;4.80;97.60
75824;DHT22;64457;51.976;9.834;2023-01-25T00:03:13;4.90;97.50
75824;DHT22;64457;51.976;9.834;2023-01-25T00:05:40;5.10;97.50
75824;DHT22;64457;51.976;9.834;2023-01-25T00:08:08;5.10;97.10
75824;DHT22;64457;51.976;9.834;2023-01-25T00:10:35;5.00;97.30
75824;DHT22;64457;51.976;9.834;2023-01-25T00:13:04;5.10;97.20
75824;DHT22;64457;51.976;9.834;2023-01-25T00:15:32;4.90;97.30
75824;DHT22;64457;51.976;9.834;2023-01-25T00:17:59;5.00;97.50
75824;DHT22;64457;51.976;9.834;2023-01-25T00:20:27;5.00;97.40
75824;DHT22;64457;51.976;9.834;2023-01-25T00:22:55;4.80;97.70
75824;DHT22;64457;51.976;9.834;2023-01-25T00:25:22;4.30;97.60
75824;DHT22;64457;51.976;9.834;2023-01-25T00:27:50;4.10;98.50
75824;DHT22;64457;51.976;9.834;2023-01-25T00:30:19;4.20;98.70
75824;DHT22;64457;51.976;9.834;2023-01-25T00:32:52;4.10;98.90
75824;DHT22;64457;51.976;9.834;2023-01-25T00:35:20;4.40;98.40
75824;DHT22;64457;51.976;9.834;2023-01-25T00:37:51;4.50;98.20
75824;DHT22;64457;51.976;9.834;2023-01-25T00:40:19;4.60;98.10
75824;DHT22;64457;51.976;9.834;2023-01-25T00:42:47;4.40;98.00
75824;DHT22;64457;51.976;9.834;2023-01-25T00:45:14;4.40;98.40
75824;DHT22;64457;51.976;9.834;2023-01-25T00:47:43;4.30;98.30
75824;DHT22;64457;51.976;9.834;2023-01-25T00:50:11;3.90;98.80
75824;DHT22;64457;51.976;9.834;2023-01-25T00:52:39;3.80;98.90
75824;DHT22;64457;51.976;9.834;2023-01-25T00:55:07;4.00;99.10
75824;DHT22;64457;51.976;9.834;2023-01-25T00:57:35;4.20;98.80
75824;DHT22;64457;51.976;9.834;2023-01-25T01:00:03;4.30;98.50
75824;DHT22;64457;51.976;9.834;2023-01-25T01:02:31;4.20;98.30
75824;DHT22;64457;51.976;9.834;2023-01-25T01:05:00;4.40;98.40
75824;DHT22;64457;51.976;9.834;2023-01-25T01:07:27;4.30;98.70
75824;DHT22;64457;51.976;9.834;2023-01-25T01:09:55;4.50;98.40
75824;DHT22;64457;51.976;9.834;2023-01-25T01:12:24;4.60;98.30
75824;DHT22;64457;51.976;9.834;2023-01-25T01:14:51;4.80;98.00
75824;DHT22;64457;51.976;9.834;2023-01-25T01:17:18;4.60;97.70
75824;DHT22;64457;51.976;9.834;2023-01-25T01:19:46;4.40;98.30
75824;DHT22;64457;51.976;9.834;2023-01-25T01:22:15;4.30;98.40
75824;DHT22;64457;51.976;9.834;2023-01-25T01:24:43;4.20;98.20
75824;DHT22;64457;51.976;9.834;2023-01-25T01:27:10;4.20;98.50
75824;DHT22;64457;51.976;9.834;2023-01-25T01:29:37;4.30;98.50
75824;DHT22;64457;51.976;9.834;2023-01-25T01:32:05;4.00;98.90
75824;DHT22;64457;51.976;9.834;2023-01-25T01:34:33;4.00;98.70
75824;DHT22;64457;51.976;9.834;2023-01-25T01:37:01;3.70;98.70
75824;DHT22;64457;51.976;9.834;2023-01-25T01:39:29;3.70;99.50
75824;DHT22;64457;51.976;9.834;2023-01-25T01:41:57;4.00;99.60
75824;DHT22;64457;51.976;9.834;2023-01-25T01:44:45;4.20;99.10
75824;DHT22;64457;51.976;9.834;2023-01-25T01:47:17;4.10;98.80
75824;DHT22;64457;51.976;9.834;2023-01-25T01:49:51;3.90;99.10
75824;DHT22;64457;51.976;9.834;2023-01-25T01:52:24;3.90;99.10
75824;DHT22;64457;51.976;9.834;2023-01-25T01:54:58;3.60;99.30
75824;DHT22;64457;51.976;9.834;2023-01-25T01:57:32;3.80;99.60
75824;DHT22;64457;51.976;9.834;2023-01-25T02:00:04;4.10;99.30
75824;DHT22;64457;51.976;9.834;2023-01-25T02:02:36;4.30;99.10
75824;DHT22;64457;51.976;9.834;2023-01-25T02:05:05;4.30;98.70
75824;DHT22;64457;51.976;9.834;2023-01-25T02:07:36;3.60;99.30
75824;DHT22;64457;51.976;9.834;2023-01-25T02:10:09;3.90;99.80
75824;DHT22;64457;51.976;9.834;2023-01-25T02:12:38;4.10;99.30
75824;DHT22;64457;51.976;9.834;2023-01-25T02:15:08;3.70;99.30
75824;DHT22;64457;51.976;9.834;2023-01-25T02:17:38;3.80;99.70
75824;DHT22;64457;51.976;9.834;2023-01-25T02:20:11;3.90;99.50
75824;DHT22;64457;51.976;9.834;2023-01-25T02:22:46;4.10;99.40
75824;DHT22;64457;51.976;9.834;2023-01-25T02:25:19;3.90;99.00
75824;DHT22;64457;51.976;9.834;2023-01-25T02:27:52;3.90;99.30
75824;DHT22;64457;51.976;9.834;2023-01-25T02:30:21;4.10;99.50
75824;DHT22;64457;51.976;9.834;2023-01-25T02:32:49;4.10;99.40
75824;DHT22;64457;51.976;9.834;2023-01-25T02:35:18;3.90;99.40
75824;DHT22;64457;51.976;9.834;2023-01-25T02:37:46;4.00;99.30
75824;DHT22;64457;51.976;9.834;2023-01-25T02:40:13;4.30;99.20
75824;DHT22;64457;51.976;9.834;2023-01-25T02:42:43;4.40;98.70
75824;DHT22;64457;51.976;9.834;2023-01-25T02:45:15;4.30;98.50
75824;DHT22;64457;51.976;9.834;2023-01-25T02:47:43;4.30;99.00
75824;DHT22;64457;51.976;9.834;2023-01-25T02:50:10;4.30;98.90
75824;DHT22;64457;51.976;9.834;2023-01-25T02:52:38;4.40;98.70
75824;DHT22;64457;51.976;9.834;2023-01-25T02:55:06;4.20;98.50
75824;DHT22;64457;51.976;9.834;2023-01-25T02:57:35;4.30;99.00
75824;DHT22;64457;51.976;9.834;2023-01-25T03:00:05;4.50;99.00
75824;DHT22;64457;51.976;9.834;2023-01-25T03:02:34;4.30;98.70
75824;DHT22;64457;51.976;9.834;2023-01-25T03:05:02;4.30;98.80
75824;DHT22;64457;51.976;9.834;2023-01-25T03:07:30;4.20;98.90
75824;DHT22;64457;51.976;9.834;2023-01-25T03:09:57;4.30;99.00
75824;DHT22;64457;51.976;9.834;2023-01-25T03:12:25;4.20;98.80
75824;DHT22;64457;51.976;9.834;2023-01-25T03:14:52;3.90;99.10
75824;DHT22;64457;51.976;9.834;2023-01-25T03:17:21;4.00;99.40
75824;DHT22;64457;51.976;9.834;2023-01-25T03:19:49;4.30;99.50
75824;DHT22;64457;51.976;9.834;2023-01-25T03:22:18;4.50;99.10
75824;DHT22;64457;51.976;9.834;2023-01-25T03:24:46;4.60;98.80
75824;DHT22;64457;51.976;9.834;2023-01-25T03:27:13;4.70;98.60
75824;DHT22;64457;51.976;9.834;2023-01-25T03:29:43;4.40;98.50
75824;DHT22;64457;51.976;9.834;2023-01-25T03:32:11;4.50;98.80
75824;DHT22;64457;51.976;9.834;2023-01-25T03:34:40;4.30;98.70
75824;DHT22;64457;51.976;9.834;2023-01-25T03:37:08;4.20;99.30
75824;DHT22;64457;51.976;9.834;2023-01-25T03:39:35;4.30;99.20
75824;DHT22;64457;51.976;9.834;2023-01-25T03:42:03;4.50;99.10
75824;DHT22;64457;51.976;9.834;2023-01-25T03:44:30;4.50;98.90
75824;DHT22;64457;51.976;9.834;2023-01-25T03:46:58;4.60;98.80
75824;DHT22;64457;51.976;9.834;2023-01-25T03:49:25;4.50;99.00
75824;DHT22;64457;51.976;9.834;2023-01-25T03:51:54;4.60;99.10
75824;DHT22;64457;51.976;9.834;2023-01-25T03:54:23;4.60;98.70
75824;DHT22;64457;51.976;9.834;2023-01-25T03:56:51;4.70;98.70
75824;DHT22;64457;51.976;9.834;2023-01-25T03:59:18;4.50;98.30
75824;DHT22;64457;51.976;9.834;2023-01-25T04:01:46;4.70;98.80
75824;DHT22;64457;51.976;9.834;2023-01-25T04:04:14;4.70;98.60
75824;DHT22;64457;51.976;9.834;2023-01-25T04:06:41;4.50;98.40
75824;DHT22;64457;51.976;9.834;2023-01-25T04:09:10;4.80;98.80
75824;DHT22;64457;51.976;9.834;2023-01-25T04:11:39;4.80;98.60
75824;DHT22;64457;51.976;9.834;2023-01-25T04:14:06;4.80;98.60
75824;DHT22;64457;51.976;9.834;2023-01-25T04:16:34;4.70;98.50
75824;DHT22;64457;51.976;9.834;2023-01-25T04:19:02;4.80;98.50
75824;DHT22;64457;51.976;9.834;2023-01-25T04:21:29;4.20;98.50
75824;DHT22;64457;51.976;9.834;2023-01-25T04:23:57;4.30;99.10
75824;DHT22;64457;51.976;9.834;2023-01-25T04:26:26;4.50;99.00
75824;DHT22;64457;51.976;9.834;2023-01-25T04:28:53;4.60;99.00
75824;DHT22;64457;51.976;9.834;2023-01-25T04:31:21;4.70;98.70
75824;DHT22;64457;51.976;9.834;2023-01-25T04:33:49;4.80;98.70
75824;DHT22;64457;51.976;9.834;2023-01-25T04:36:16;4.30;98.50
75824;DHT22;64457;51.976;9.834;2023-01-25T04:38:44;4.30;99.00
75824;DHT22;64457;51.976;9.834;2023-01-25T04:41:11;4.40;99.10
75824;DHT22;64457;51.976;9.834;2023-01-25T04:43:41;4.40;99.10
75824;DHT22;64457;51.976;9.834;2023-01-25T04:46:08;4.30;98.80
75824;DHT22;64457;51.976;9.834;2023-01-25T04:48:36;3.80;99.20
75824;DHT22;64457;51.976;9.834;2023-01-25T04:51:04;4.10;99.90
75824;DHT22;64457;51.976;9.834;2023-01-25T04:53:34;4.00;99.50
75824;DHT22;64457;51.976;9.834;2023-01-25T04:56:01;4.30;99.30
75824;DHT22;64457;51.976;9.834;2023-01-25T04:58:29;4.30;99.10
75824;DHT22;64457;51.976;9.834;2023-01-25T05:01:01;4.50;99.20
75824;DHT22;64457;51.976;9.834;2023-01-25T05:03:29;4.60;99.00
75824;DHT22;64457;51.976;9.834;2023-01-25T05:05:56;4.50;98.70
75824;DHT22;64457;51.976;9.834;2023-01-25T05:08:24;4.60;99.00
75824;DHT22;64457;51.976;9.834;2023-01-25T05:10:52;4.50;98.70
75824;DHT22;64457;51.976;9.834;2023-01-25T05:13:19;4.50;98.80
75824;DHT22;64457;51.976;9.834;2023-01-25T05:15:47;4.50;98.70
75824;DHT22;64457;51.976;9.834;2023-01-25T05:18:16;4.60;98.80
75824;DHT22;64457;51.976;9.834;2023-01-25T05:20:43;4.60;98.80
75824;DHT22;64457;51.976;9.834;2023-01-25T05:23:11;4.70;98.90
75824;DHT22;64457;51.976;9.834;2023-01-25T05:25:38;4.60;98.70
75824;DHT22;64457;51.976;9.834;2023-01-25T05:28:23;4.70;98.60
75824;DHT22;64457;51.976;9.834;2023-01-25T05:30:50;4.50;98.70
75824;DHT22;64457;51.976;9.834;2023-01-25T05:33:19;4.20;99.00
75824;DHT22;64457;51.976;9.834;2023-01-25T05:35:46;4.20;99.20
75824;DHT22;64457;51.976;9.834;2023-01-25T05:38:14;4.40;99.30
75824;DHT22;64457;51.976;9.834;2023-01-25T05:40:41;4.50;99.20
75824;DHT22;64457;51.976;9.834;2023-01-25T05:43:09;4.60;99.20
75824;DHT22;64457;51.976;9.834;2023-01-25T05:45:36;4.30;99.00
75824;DHT22;64457;51.976;9.834;2023-01-25T05:48:05;4.20;99.20
75824;DHT22;64457;51.976;9.834;2023-01-25T05:50:34;4.40;99.30
75824;DHT22;64457;51.976;9.834;2023-01-25T05:53:02;4.10;99.00
75824;DHT22;64457;51.976;9.834;2023-01-25T05:55:29;4.10;99.40
75824;DHT22;64457;51.976;9.834;2023-01-25T05:57:57;4.00;99.30
75824;DHT22;64457;51.976;9.834;2023-01-25T06:00:25;3.90;99.60
75824;DHT22;64457;51.976;9.834;2023-01-25T06:02:52;4.00;99.60
75824;DHT22;64457;51.976;9.834;2023-01-25T06:05:21;4.10;99.50
75824;DHT22;64457;51.976;9.834;2023-01-25T06:07:50;4.20;99.30
75824;DHT22;64457;51.976;9.834;2023-01-25T06:10:18;4.00;99.10
75824;DHT22;64457;51.976;9.834;2023-01-25T06:12:45;4.00;99.50
75824;DHT22;64457;51.976;9.834;2023-01-25T06:15:13;4.20;99.30
75824;DHT22;64457;51.976;9.834;2023-01-25T06:17:40;4.20;99.10
75824;DHT22;64457;51.976;9.834;2023-01-25T06:20:09;3.90;99.00
75824;DHT22;64457;51.976;9.834;2023-01-25T06:22:37;4.20;99.40
75824;DHT22;64457;51.976;9.834;2023-01-25T06:25:07;4.30;99.30
75824;DHT22;64457;51.976;9.834;2023-01-25T06:27:35;4.40;98.90
75824;DHT22;64457;51.976;9.834;2023-01-25T06:30:03;4.30;98.60
75824;DHT22;64457;51.976;9.834;2023-01-25T06:32:32;4.20;99.00
75824;DHT22;64457;51.976;9.834;2023-01-25T06:34:59;4.30;99.00
75824;DHT22;64457;51.976;9.834;2023-01-25T06:37:27;4.10;99.10
75824;DHT22;64457;51.976;9.834;2023-01-25T06:39:54;4.10;99.10
75824;DHT22;64457;51.976;9.834;2023-01-25T06:42:24;4.10;99.10
75824;DHT22;64457;51.976;9.834;2023-01-25T06:44:52;4.30;99.20
75824;DHT22;64457;51.976;9.834;2023-01-25T06:47:19;4.20;98.90
75824;DHT22;64457;51.976;9.834;2023-01-25T06:49:47;4.00;99.10
75824;DHT22;64457;51.976;9.834;2023-01-25T06:52:14;4.00;99.20
75824;DHT22;64457;51.976;9.834;2023-01-25T06:54:42;3.80;99.00
75824;DHT22;64457;51.976;9.834;2023-01-25T06:57:09;3.90;99.40
75824;DHT22;64457;51.976;9.834;2023-01-25T06:59:39;4.10;99.30
75824;DHT22;64457;51.976;9.834;2023-01-25T07:02:08;4.20;99.10
75824;DHT22;64457;51.976;9.834;2023-01-25T07:04:36;4.10;98.80
75824;DHT22;64457;51.976;9.834;2023-01-25T07:07:06;4.30;99.00
75824;DHT22;64457;51.976;9.834;2023-01-25T07:09:34;4.30;98.70
75824;DHT22;64457;51.976;9.834;2023-01-25T07:12:02;4.00;98.60
75824;DHT22;64457;51.976;9.834;2023-01-25T07:14:30;3.90;98.90
75824;DHT22;64457;51.976;9.834;2023-01-25T07:16:59;4.00;99.10
75824;DHT22;64457;51.976;9.834;2023-01-25T07:19:26;4.00;99.00
75824;DHT22;64457;51.976;9.834;2023-01-25T07:21:54;4.30;99.20
75824;DHT22;64457;51.976;9.834;2023-01-25T07:24:22;4.40;98.60
75824;DHT22;64457;51.976;9.834;2023-01-25T07:26:51;4.30;98.40
75824;DHT22;64457;51.976;9.834;2023-01-25T07:29:19;4.50;98.70
75824;DHT22;64457;51.976;9.834;2023-01-25T07:31:47;4.40;98.50
75824;DHT22;64457;51.976;9.834;2023-01-25T07:34:16;4.30;98.50
75824;DHT22;64457;51.976;9.834;2023-01-25T07:36:43;4.10;98.60
75824;DHT22;64457;51.976;9.834;2023-01-25T07:39:12;4.30;98.90
75824;DHT22;64457;51.976;9.834;2023-01-25T07:41:39;4.20;98.60
75824;DHT22;64457;51.976;9.834;2023-01-25T07:44:08;4.40;99.20
75824;DHT22;64457;51.976;9.834;2023-01-25T07:46:36;4.50;98.70
75824;DHT22;64457;51.976;9.834;2023-01-25T07:49:03;4.30;98.40
75824;DHT22;64457;51.976;9.834;2023-01-25T07:51:32;3.60;98.40
75824;DHT22;64457;51.976;9.834;2023-01-25T07:54:01;3.90;99.40
75824;DHT22;64457;51.976;9.834;2023-01-25T07:56:32;4.00;99.30
75824;DHT22;64457;51.976;9.834;2023-01-25T07:59:01;4.20;99.00
75824;DHT22;64457;51.976;9.834;2023-01-25T08:01:29;4.40;98.60
75824;DHT22;64457;51.976;9.834;2023-01-25T08:03:59;4.30;98.60
75824;DHT22;64457;51.976;9.834;2023-01-25T08:06:28;4.40;98.40
75824;DHT22;64457;51.976;9.834;2023-01-25T08:09:03;4.30;98.60
75824;DHT22;64457;51.976;9.834;2023-01-25T08:11:33;4.30;98.40
75824;DHT22;64457;51.976;9.834;2023-01-25T08:14:00;4.30;98.20
75824;DHT22;64457;51.976;9.834;2023-01-25T08:16:29;4.00;98.30
75824;DHT22;64457;51.976;9.834;2023-01-25T08:19:00;3.90;98.90
75824;DHT22;64457;51.976;9.834;2023-01-25T08:21:30;4.10;98.90
75824;DHT22;64457;51.976;9.834;2023-01-25T08:24:02;4.10;98.60
75824;DHT22;64457;51.976;9.834;2023-01-25T08:26:32;4.20;98.50
75824;DHT22;64457;51.976;9.834;2023-01-25T08:29:00;4.30;98.40
75824;DHT22;64457;51.976;9.834;2023-01-25T08:31:30;4.30;98.30
75824;DHT22;64457;51.976;9.834;2023-01-25T08:33:59;4.30;98.10
75824;DHT22;64457;51.976;9.834;2023-01-25T08:36:27;4.20;98.40
75824;DHT22;64457;51.976;9.834;2023-01-25T08:38:56;4.20;98.60
75824;DHT22;64457;51.976;9.834;2023-01-25T08:41:27;4.40;98.50
75824;DHT22;64457;51.976;9.834;2023-01-25T08:43:58;4.70;98.40
75824;DHT22;64457;51.976;9.834;2023-01-25T08:46:27;4.70;98.30
75824;DHT22;64457;51.976;9.834;2023-01-25T08:48:57;4.50;97.70
75824;DHT22;64457;51.976;9.834;2023-01-25T08:51:26;4.50;97.70
75824;DHT22;64457;51.976;9.834;2023-01-25T08:53:53;4.20;97.90
75824;DHT22;64457;51.976;9.834;2023-01-25T08:56:21;4.20;98.30
75824;DHT22;64457;51.976;9.834;2023-01-25T08:58:50;4.30;98.30
75824;DHT22;64457;51.976;9.834;2023-01-25T09:01:19;4.30;98.20
75824;DHT22;64457;51.976;9.834;2023-01-25T09:03:48;4.40;98.20
75824;DHT22;64457;51.976;9.834;2023-01-25T09:06:17;4.40;98.10
75824;DHT22;64457;51.976;9.834;2023-01-25T09:08:46;4.10;98.00
75824;DHT22;64457;51.976;9.834;2023-01-25T09:11:15;4.00;98.40
75824;DHT22;64457;51.976;9.834;2023-01-25T09:13:44;4.20;98.80
75824;DHT22;64457;51.976;9.834;2023-01-25T09:16:16;4.40;98.60
75824;DHT22;64457;51.976;9.834;2023-01-25T09:18:47;4.50;98.40
75824;DHT22;64457;51.976;9.834;2023-01-25T09:21:16;4.60;98.10
75824;DHT22;64457;51.976;9.834;2023-01-25T09:23:47;4.70;97.80
75824;DHT22;64457;51.976;9.834;2023-01-25T09:26:15;4.50;97.90
75824;DHT22;64457;51.976;9.834;2023-01-25T09:28:46;4.30;97.90
75824;DHT22;64457;51.976;9.834;2023-01-25T09:31:16;4.10;97.90
75824;DHT22;64457;51.976;9.834;2023-01-25T09:33:45;4.20;98.20
75824;DHT22;64457;51.976;9.834;2023-01-25T09:36:13;4.40;98.20
75824;DHT22;64457;51.976;9.834;2023-01-25T09:38:40;4.40;98.00
75824;DHT22;64457;51.976;9.834;2023-01-25T09:41:17;4.50;98.10
75824;DHT22;64457;51.976;9.834;2023-01-25T09:44:08;4.50;98.10
75824;DHT22;64457;51.976;9.834;2023-01-25T09:46:45;4.60;98.10
75824;DHT22;64457;51.976;9.834;2023-01-25T09:49:36;4.50;97.70
75824;DHT22;64457;51.976;9.834;2023-01-25T09:52:25;4.50;98.10
75824;DHT22;64457;51.976;9.834;2023-01-25T09:55:05;4.30;97.90
75824;DHT22;64457;51.976;9.834;2023-01-25T09:57:39;4.00;98.40
75824;DHT22;64457;51.976;9.834;2023-01-25T10:00:15;4.00;98.30
75824;DHT22;64457;51.976;9.834;2023-01-25T10:02:50;4.20;98.50
75824;DHT22;64457;51.976;9.834;2023-01-25T10:05:24;4.30;98.30
75824;DHT22;64457;51.976;9.834;2023-01-25T10:07:57;4.40;98.30
75824;DHT22;64457;51.976;9.834;2023-01-25T10:10:32;4.60;98.30
75824;DHT22;64457;51.976;9.834;2023-01-25T10:13:02;4.50;98.00
75824;DHT22;64457;51.976;9.834;2023-01-25T10:15:32;4.60;97.90
75824;DHT22;64457;51.976;9.834;2023-01-25T10:18:18;4.50;97.90
75824;DHT22;64457;51.976;9.834;2023-01-25T10:20:52;4.60;98.10
75824;DHT22;64457;51.976;9.834;2023-01-25T10:23:40;4.20;97.40
75824;DHT22;64457;51.976;9.834;2023-01-25T10:26:22;4.20;98.10
75824;DHT22;64457;51.976;9.834;2023-01-25T10:28:58;4.10;98.30
75824;DHT22;64457;51.976;9.834;2023-01-25T10:31:36;4.10;98.50
75824;DHT22;64457;51.976;9.834;2023-01-25T10:34:16;4.00;98.30
75824;DHT22;64457;51.976;9.834;2023-01-25T10:36:47;4.20;98.50
75824;DHT22;64457;51.976;9.834;2023-01-25T10:39:19;4.30;98.20
75824;DHT22;64457;51.976;9.834;2023-01-25T10:41:50;4.20;98.00
75824;DHT22;64457;51.976;9.834;2023-01-25T10:44:20;4.00;98.20
75824;DHT22;64457;51.976;9.834;2023-01-25T10:46:54;4.20;98.50
75824;DHT22;64457;51.976;9.834;2023-01-25T10:49:28;4.10;98.10
75824;DHT22;64457;51.976;9.834;2023-01-25T10:52:12;4.10;98.40
75824;DHT22;64457;51.976;9.834;2023-01-25T10:54:41;4.10;98.40
75824;DHT22;64457;51.976;9.834;2023-01-25T10:57:14;4.00;98.10
75824;DHT22;64457;51.976;9.834;2023-01-25T10:59:45;3.80;98.40
75824;DHT22;64457;51.976;9.834;2023-01-25T11:02:38;4.10;98.40
75824;DHT22;64457;51.976;9.834;2023-01-25T11:05:26;4.30;98.10
75824;DHT22;64457;51.976;9.834;2023-01-25T11:07:59;4.40;98.20
75824;DHT22;64457;51.976;9.834;2023-01-25T11:10:44;4.60;98.10
75824;DHT22;64457;51.976;9.834;2023-01-25T11:13:20;4.70;97.70
75824;DHT22;64457;51.976;9.834;2023-01-25T11:15:50;4.70;97.50
75824;DHT22;64457;51.976;9.834;2023-01-25T11:18:21;4.70;97.50
75824;DHT22;64457;51.976;9.834;2023-01-25T11:21:09;4.70;97.70
75824;DHT22;64457;51.976;9.834;2023-01-25T11:23:39;4.00;97.30
75824;DHT22;64457;51.976;9.834;2023-01-25T11:26:12;3.90;98.40
75824;DHT22;64457;51.976;9.834;2023-01-25T11:28:42;3.90;98.20
75824;DHT22;64457;51.976;9.834;2023-01-25T11:31:12;4.20;98.20
75824;DHT22;64457;51.976;9.834;2023-01-25T11:33:42;3.70;97.70
75824;DHT22;64457;51.976;9.834;2023-01-25T11:36:26;4.00;98.60
75824;DHT22;64457;51.976;9.834;2023-01-25T11:39:20;4.00;98.70
75824;DHT22;64457;51.976;9.834;2023-01-25T11:42:11;4.00;98.70
75824;DHT22;64457;51.976;9.834;2023-01-25T11:48:23;4.40;98.10
75824;DHT22;64457;51.976;9.834;2023-01-25T11:51:02;4.40;98.00
75824;DHT22;64457;51.976;9.834;2023-01-25T11:53:45;4.50;97.90
75824;DHT22;64457;51.976;9.834;2023-01-25T11:56:30;4.70;97.60
75824;DHT22;64457;51.976;9.834;2023-01-25T11:59:21;4.70;97.60
75824;DHT22;64457;51.976;9.834;2023-01-25T12:02:08;4.40;97.10
75824;DHT22;64457;51.976;9.834;2023-01-25T12:05:05;4.20;97.90
75824;DHT22;64457;51.976;9.834;2023-01-25T12:07:50;4.30;98.00
75824;DHT22;64457;51.976;9.834;2023-01-25T12:10:28;4.40;97.90
75824;DHT22;64457;51.976;9.834;2023-01-25T12:13:04;4.40;97.70
75824;DHT22;64457;51.976;9.834;2023-01-25T12:15:49;4.50;97.60
75824;DHT22;64457;51.976;9.834;2023-01-25T12:18:40;4.70;97.40
75824;DHT22;64457;51.976;9.834;2023-01-25T12:21:22;4.60;96.80
75824;DHT22;64457;51.976;9.834;2023-01-25T12:24:12;4.60;97.40
75824;DHT22;64457;51.976;9.834;2023-01-25T12:26:53;4.50;97.20
75824;DHT22;64457;51.976;9.834;2023-01-25T12:29:29;4.20;97.30
75824;DHT22;64457;51.976;9.834;2023-01-25T12:32:04;4.40;97.50
75824;DHT22;64457;51.976;9.834;2023-01-25T12:34:37;4.20;97.00
75824;DHT22;64457;51.976;9.834;2023-01-25T12:37:13;4.20;98.10
75824;DHT22;64457;51.976;9.834;2023-01-25T12:39:47;4.10;97.60
75824;DHT22;64457;51.976;9.834;2023-01-25T12:42:20;4.30;97.90
75824;DHT22;64457;51.976;9.834;2023-01-25T12:44:55;4.50;97.70
75824;DHT22;64457;51.976;9.834;2023-01-25T12:47:32;4.70;97.50
75824;DHT22;64457;51.976;9.834;2023-01-25T12:50:10;4.20;97.00
75824;DHT22;64457;51.976;9.834;2023-01-25T12:52:45;4.10;97.50
75824;DHT22;64457;51.976;9.834;2023-01-25T12:55:16;3.70;98.20
75824;DHT22;64457;51.976;9.834;2023-01-25T12:57:52;4.10;98.50
75824;DHT22;64457;51.976;9.834;2023-01-25T13:00:28;4.20;98.00
75824;DHT22;64457;51.976;9.834;2023-01-25T13:03:15;4.20;98.00
75824;DHT22;64457;51.976;9.834;2023-01-25T13:05:50;4.20;97.90
75824;DHT22;64457;51.976;9.834;2023-01-25T13:08:30;4.30;97.80
75824;DHT22;64457;51.976;9.834;2023-01-25T13:11:12;4.50;97.70
75824;DHT22;64457;51.976;9.834;2023-01-25T13:13:45;4.50;97.20
75824;DHT22;64457;51.976;9.834;2023-01-25T13:16:33;4.80;97.50
75824;DHT22;64457;51.976;9.834;2023-01-25T13:19:18;4.40;97.30
75824;DHT22;64457;51.976;9.834;2023-01-25T13:21:48;4.50;97.40
75824;DHT22;64457;51.976;9.834;2023-01-25T13:24:19;4.50;97.40
75824;DHT22;64457;51.976;9.834;2023-01-25T13:27:03;4.60;97.40
75824;DHT22;64457;51.976;9.834;2023-01-25T13:30:00;4.30;97.10
75824;DHT22;64457;51.976;9.834;2023-01-25T13:33:03;4.30;97.90
75824;DHT22;64457;51.976;9.834;2023-01-25T13:35:36;4.60;97.80
75824;DHT22;64457;51.976;9.834;2023-01-25T13:38:29;4.70;97.60
75824;DHT22;64457;51.976;9.834;2023-01-25T13:41:13;4.50;97.10
75824;DHT22;64457;51.976;9.834;2023-01-25T13:43:45;4.60;97.20
75824;DHT22;64457;51.976;9.834;2023-01-25T13:46:18;4.50;97.30
75824;DHT22;64457;51.976;9.834;2023-01-25T13:49:00;4.60;97.40
75824;DHT22;64457;51.976;9.834;2023-01-25T13:51:33;4.70;97.30
75824;DHT22;64457;51.976;9.834;2023-01-25T13:54:03;4.70;97.20
75824;DHT22;64457;51.976;9.834;2023-01-25T13:56:33;4.80;97.20
75824;DHT22;64457;51.976;9.834;2023-01-25T13:59:02;4.90;97.20
75824;DHT22;64457;51.976;9.834;2023-01-25T14:01:33;4.90;97.40
75824;DHT22;64457;51.976;9.834;2023-01-25T14:04:03;4.90;96.90
75824;DHT22;64457;51.976;9.834;2023-01-25T14:06:33;4.80;97.00
75824;DHT22;64457;51.976;9.834;2023-01-25T14:09:04;4.80;97.20
75824;DHT22;64457;51.976;9.834;2023-01-25T14:11:43;4.80;97.00
75824;DHT22;64457;51.976;9.834;2023-01-25T14:14:18;4.80;97.10
75824;DHT22;64457;51.976;9.834;2023-01-25T14:17:00;4.80;97.00
75824;DHT22;64457;51.976;9.834;2023-01-25T14:19:34;4.70;96.90
75824;DHT22;64457;51.976;9.834;2023-01-25T14:22:16;4.60;96.90
75824;DHT22;64457;51.976;9.834;2023-01-25T14:25:01;4.60;97.30
75824;DHT22;64457;51.976;9.834;2023-01-25T14:27:34;4.80;97.20
75824;DHT22;64457;51.976;9.834;2023-01-25T14:30:03;4.80;96.70
75824;DHT22;64457;51.976;9.834;2023-01-25T14:32:32;4.90;97.00
75824;DHT22;64457;51.976;9.834;2023-01-25T14:35:36;4.80;96.90
75824;DHT22;64457;51.976;9.834;2023-01-25T14:38:20;4.90;97.00
75824;DHT22;64457;51.976;9.834;2023-01-25T14:40:58;4.90;97.10
75824;DHT22;64457;51.976;9.834;2023-01-25T14:43:29;4.90;96.80
75824;DHT22;64457;51.976;9.834;2023-01-25T14:45:57;4.80;97.10
75824;DHT22;64457;51.976;9.834;2023-01-25T14:48:41;4.70;96.90
75824;DHT22;64457;51.976;9.834;2023-01-25T14:51:14;4.60;97.00
75824;DHT22;64457;51.976;9.834;2023-01-25T14:53:48;4.50;97.10
75824;DHT22;64457;51.976;9.834;2023-01-25T14:56:27;4.50;97.20
75824;DHT22;64457;51.976;9.834;2023-01-25T14:58:57;4.70;97.10
75824;DHT22;64457;51.976;9.834;2023-01-25T15:01:29;4.70;97.00
75824;DHT22;64457;51.976;9.834;2023-01-25T15:04:01;4.60;96.90
75824;DHT22;64457;51.976;9.834;2023-01-25T15:06:29;4.40;97.00
75824;DHT22;64457;51.976;9.834;2023-01-25T15:08:56;4.30;97.40
75824;DHT22;64457;51.976;9.834;2023-01-25T15:11:30;4.30;97.50
75824;DHT22;64457;51.976;9.834;2023-01-25T15:14:16;4.40;97.40
75824;DHT22;64457;51.976;9.834;2023-01-25T15:16:44;4.60;97.60
75824;DHT22;64457;51.976;9.834;2023-01-25T15:19:25;4.80;97.40
75824;DHT22;64457;51.976;9.834;2023-01-25T15:21:55;4.70;97.00
75824;DHT22;64457;51.976;9.834;2023-01-25T15:24:24;4.10;97.00
75824;DHT22;64457;51.976;9.834;2023-01-25T15:26:54;4.40;97.70
75824;DHT22;64457;51.976;9.834;2023-01-25T15:29:23;4.50;97.50
75824;DHT22;64457;51.976;9.834;2023-01-25T15:31:52;4.60;97.40
75824;DHT22;64457;51.976;9.834;2023-01-25T15:34:25;4.60;97.30
75824;DHT22;64457;51.976;9.834;2023-01-25T15:36:57;4.60;97.30
75824;DHT22;64457;51.976;9.834;2023-01-25T15:39:25;4.60;97.40
75824;DHT22;64457;51.976;9.834;2023-01-25T15:41:53;4.70;97.30
75824;DHT22;64457;51.976;9.834;2023-01-25T15:44:21;4.70;97.40
75824;DHT22;64457;51.976;9.834;2023-01-25T15:46:50;4.80;97.20
75824;DHT22;64457;51.976;9.834;2023-01-25T15:49:22;4.80;97.20
75824;DHT22;64457;51.976;9.834;2023-01-25T15:51:53;4.70;97.10
75824;DHT22;64457;51.976;9.834;2023-01-25T15:54:21;4.70;97.10
75824;DHT22;64457;51.976;9.834;2023-01-25T15:56:53;4.70;97.20
75824;DHT22;64457;51.976;9.834;2023-01-25T15:59:21;4.70;97.00
75824;DHT22;64457;51.976;9.834;2023-01-25T16:01:49;4.50;97.30
75824;DHT22;64457;51.976;9.834;2023-01-25T16:04:17;4.60;97.10
75824;DHT22;64457;51.976;9.834;2023-01-25T16:06:47;4.60;97.40
75824;DHT22;64457;51.976;9.834;2023-01-25T16:09:17;4.70;97.40
75824;DHT22;64457;51.976;9.834;2023-01-25T16:11:48;4.70;97.20
75824;DHT22;64457;51.976;9.834;2023-01-25T16:14:17;4.60;97.10
75824;DHT22;64457;51.976;9.834;2023-01-25T16:16:47;4.60;97.30